sensor_id;sensor_type;location;lat;lon;timestamp;temperature;humidity
23669;DHT22;12011;47.422;15.018;2023-04-28T00:02:25;6.80;99.90
23669;DHT22;12011;47.422;15.018;2023-04-28T00:05:02;6.90;99.90
23669;DHT22;12011;47.422;15.018;2023-04-28T00:07:33;6.90;99.90
23669;DHT22;12011;47.422;15.018;2023-04-28T00:10:06;6.80;99.90
23669;DHT22;12011;47.422;15.018;2023-04-28T00:12:37;6.70;99.90
23669;DHT22;12011;47.422;15.018;2023-04-28T00:15:08;6.70;99.90
23669;DHT22;12011;47.422;15.018;2023-04-28T00:17:40;6.20;99.90
23669;DHT22;12011;47.422;15.018;2023-04-28T00:20:13;6.70;99.90
23669;DHT22;12011;47.422;15.018;2023-04-28T00:22:44;6.70;99.90
23669;DHT22;12011;47.422;15.018;2023-04-28T00:25:19;6.70;99.90
23669;DHT22;12011;47.422;15.018;2023-04-28T00:27:58;6.70;99.90
23669;DHT22;12011;47.422;15.018;2023-04-28T00:30:38;6.60;99.90
23669;DHT22;12011;47.422;15.018;2023-04-28T00:33:09;6.60;99.90
23669;DHT22;12011;47.422;15.018;2023-04-28T00:35:43;6.60;99.90
23669;DHT22;12011;47.422;15.018;2023-04-28T00:38:15;6.60;99.90
23669;DHT22;12011;47.422;15.018;2023-04-28T00:40:46;6.70;99.90
23669;DHT22;12011;47.422;15.018;2023-04-28T00:43:19;6.60;99.90
23669;DHT22;12011;47.422;15.018;2023-04-28T00:45:49;6.60;99.90
23669;DHT22;12011;47.422;15.018;2023-04-28T00:48:22;6.60;99.90
23669;DHT22;12011;47.422;15.018;2023-04-28T00:51:07;6.50;99.90
23669;DHT22;12011;47.422;15.018;2023-04-28T00:53:39;6.50;99.90
23669;DHT22;12011;47.422;15.018;2023-04-28T00:56:11;6.40;99.90
23669;DHT22;12011;47.422;15.018;2023-04-28T00:58:42;6.40;99.90
23669;DHT22;12011;47.422;15.018;2023-04-28T01:01:13;6.40;99.90
23669;DHT22;12011;47.422;15.018;2023-04-28T01:03:47;6.40;99.90
23669;DHT22;12011;47.422;15.018;2023-04-28T01:06:32;6.40;99.90
23669;DHT22;12011;47.422;15.018;2023-04-28T01:09:10;6.30;99.90
23669;DHT22;12011;47.422;15.018;2023-04-28T01:11:41;6.30;99.90
23669;DHT22;12011;47.422;15.018;2023-04-28T01:14:32;6.30;99.90
23669;DHT22;12011;47.422;15.018;2023-04-28T01:17:04;6.10;99.90
23669;DHT22;12011;47.422;15.018;2023-04-28T01:19:34;5.10;99.90
23669;DHT22;12011;47.422;15.018;2023-04-28T01:22:10;5.90;99.90
23669;DHT22;12011;47.422;15.018;2023-04-28T01:24:46;5.70;99.90
23669;DHT22;12011;47.422;15.018;2023-04-28T01:27:18;5.70;99.90
23669;DHT22;12011;47.422;15.018;2023-04-28T01:29:52;5.50;99.90
23669;DHT22;12011;47.422;15.018;2023-04-28T01:32:26;5.50;99.90
23669;DHT22;12011;47.422;15.018;2023-04-28T01:35:00;5.40;99.90
23669;DHT22;12011;47.422;15.018;2023-04-28T01:37:34;5.30;99.90
23669;DHT22;12011;47.422;15.018;2023-04-28T01:40:14;5.30;99.90
23669;DHT22;12011;47.422;15.018;2023-04-28T01:42:47;5.20;99.90
23669;DHT22;12011;47.422;15.018;2023-04-28T01:45:18;5.20;99.90
23669;DHT22;12011;47.422;15.018;2023-04-28T01:47:51;5.10;99.90
23669;DHT22;12011;47.422;15.018;2023-04-28T01:50:27;5.20;99.90
23669;DHT22;12011;47.422;15.018;2023-04-28T01:52:59;5.00;99.90
23669;DHT22;12011;47.422;15.018;2023-04-28T01:55:38;4.90;99.90
23669;DHT22;12011;47.422;15.018;2023-04-28T01:58:19;4.90;99.90
23669;DHT22;12011;47.422;15.018;2023-04-28T02:00:57;4.90;99.90
23669;DHT22;12011;47.422;15.018;2023-04-28T02:03:30;4.90;99.90
23669;DHT22;12011;47.422;15.018;2023-04-28T02:06:04;4.90;99.90
23669;DHT22;12011;47.422;15.018;2023-04-28T02:08:53;4.80;99.90
23669;DHT22;12011;47.422;15.018;2023-04-28T02:11:30;4.80;99.90
23669;DHT22;12011;47.422;15.018;2023-04-28T02:14:05;4.70;99.90
23669;DHT22;12011;47.422;15.018;2023-04-28T02:16:35;4.60;99.90
23669;DHT22;12011;47.422;15.018;2023-04-28T02:21:56;4.40;99.90
23669;DHT22;12011;47.422;15.018;2023-04-28T02:24:33;4.50;99.90
23669;DHT22;12011;47.422;15.018;2023-04-28T02:27:11;4.50;99.90
23669;DHT22;12011;47.422;15.018;2023-04-28T02:29:46;4.50;99.90
23669;DHT22;12011;47.422;15.018;2023-04-28T02:32:17;4.50;99.90
23669;DHT22;12011;47.422;15.018;2023-04-28T02:34:52;4.40;99.90
23669;DHT22;12011;47.422;15.018;2023-04-28T02:37:24;4.30;99.90
23669;DHT22;12011;47.422;15.018;2023-04-28T02:39:57;4.30;99.90
23669;DHT22;12011;47.422;15.018;2023-04-28T02:42:30;4.20;99.90
23669;DHT22;12011;47.422;15.018;2023-04-28T02:45:06;4.20;99.90
23669;DHT22;12011;47.422;15.018;2023-04-28T02:47:46;4.10;99.90
23669;DHT22;12011;47.422;15.018;2023-04-28T02:50:19;4.00;99.90
23669;DHT22;12011;47.422;15.018;2023-04-28T02:52:51;3.90;99.90
23669;DHT22;12011;47.422;15.018;2023-04-28T02:55:27;3.90;99.90
23669;DHT22;12011;47.422;15.018;2023-04-28T02:58:04;3.80;99.90
23669;DHT22;12011;47.422;15.018;2023-04-28T03:00:37;3.80;99.90
23669;DHT22;12011;47.422;15.018;2023-04-28T03:03:15;3.70;99.90
23669;DHT22;12011;47.422;15.018;2023-04-28T03:05:54;3.60;99.90
23669;DHT22;12011;47.422;15.018;2023-04-28T03:08:25;3.60;99.90
23669;DHT22;12011;47.422;15.018;2023-04-28T03:11:00;3.50;99.90
23669;DHT22;12011;47.422;15.018;2023-04-28T03:13:36;3.50;99.90
23669;DHT22;12011;47.422;15.018;2023-04-28T03:16:08;3.50;99.90
23669;DHT22;12011;47.422;15.018;2023-04-28T03:18:41;3.40;99.90
23669;DHT22;12011;47.422;15.018;2023-04-28T03:21:13;3.20;99.90
23669;DHT22;12011;47.422;15.018;2023-04-28T03:23:44;3.00;99.90
23669;DHT22;12011;47.422;15.018;2023-04-28T03:26:21;3.00;99.90
23669;DHT22;12011;47.422;15.018;2023-04-28T03:28:54;3.10;99.90
23669;DHT22;12011;47.422;15.018;2023-04-28T03:31:27;3.10;99.90
23669;DHT22;12011;47.422;15.018;2023-04-28T03:34:00;3.10;99.90
23669;DHT22;12011;47.422;15.018;2023-04-28T03:36:30;3.20;99.90
23669;DHT22;12011;47.422;15.018;2023-04-28T03:39:08;3.20;99.90
23669;DHT22;12011;47.422;15.018;2023-04-28T03:41:42;3.20;99.90
23669;DHT22;12011;47.422;15.018;2023-04-28T03:44:34;3.20;99.90
23669;DHT22;12011;47.422;15.018;2023-04-28T03:47:13;3.20;99.90
23669;DHT22;12011;47.422;15.018;2023-04-28T03:49:44;3.30;99.90
23669;DHT22;12011;47.422;15.018;2023-04-28T03:52:14;3.50;99.90
23669;DHT22;12011;47.422;15.018;2023-04-28T03:54:53;3.60;99.90
23669;DHT22;12011;47.422;15.018;2023-04-28T03:57:25;3.70;99.90
23669;DHT22;12011;47.422;15.018;2023-04-28T04:00:00;3.80;99.90
23669;DHT22;12011;47.422;15.018;2023-04-28T04:02:45;3.30;99.90
23669;DHT22;12011;47.422;15.018;2023-04-28T04:05:16;3.70;99.90
23669;DHT22;12011;47.422;15.018;2023-04-28T04:08:02;3.70;99.90
23669;DHT22;12011;47.422;15.018;2023-04-28T04:10:40;3.70;99.90
23669;DHT22;12011;47.422;15.018;2023-04-28T04:13:17;3.80;99.90
23669;DHT22;12011;47.422;15.018;2023-04-28T04:15:52;3.90;99.90
23669;DHT22;12011;47.422;15.018;2023-04-28T04:18:24;3.90;99.90
23669;DHT22;12011;47.422;15.018;2023-04-28T04:21:30;4.00;99.90
23669;DHT22;12011;47.422;15.018;2023-04-28T04:24:08;4.00;99.90
23669;DHT22;12011;47.422;15.018;2023-04-28T04:26:38;4.10;99.90
23669;DHT22;12011;47.422;15.018;2023-04-28T04:29:23;4.20;99.90
23669;DHT22;12011;47.422;15.018;2023-04-28T04:31:58;4.30;99.90
23669;DHT22;12011;47.422;15.018;2023-04-28T04:34:33;4.30;99.90
23669;DHT22;12011;47.422;15.018;2023-04-28T04:37:03;4.50;99.90
23669;DHT22;12011;47.422;15.018;2023-04-28T04:39:38;4.50;99.90
23669;DHT22;12011;47.422;15.018;2023-04-28T04:42:13;4.50;99.90
23669;DHT22;12011;47.422;15.018;2023-04-28T04:44:55;4.50;99.90
23669;DHT22;12011;47.422;15.018;2023-04-28T04:47:36;4.50;99.90
23669;DHT22;12011;47.422;15.018;2023-04-28T04:50:19;4.60;99.90
23669;DHT22;12011;47.422;15.018;2023-04-28T04:52:55;4.70;99.90
23669;DHT22;12011;47.422;15.018;2023-04-28T04:55:34;4.80;99.90
23669;DHT22;12011;47.422;15.018;2023-04-28T04:58:17;5.00;99.90
23669;DHT22;12011;47.422;15.018;2023-04-28T05:01:00;5.10;99.90
23669;DHT22;12011;47.422;15.018;2023-04-28T05:03:32;5.20;99.90
23669;DHT22;12011;47.422;15.018;2023-04-28T05:06:04;5.30;99.90
23669;DHT22;12011;47.422;15.018;2023-04-28T05:08:43;5.50;99.90
23669;DHT22;12011;47.422;15.018;2023-04-28T05:11:16;5.70;99.90
23669;DHT22;12011;47.422;15.018;2023-04-28T05:13:51;5.90;99.90
23669;DHT22;12011;47.422;15.018;2023-04-28T05:16:27;6.10;99.90
23669;DHT22;12011;47.422;15.018;2023-04-28T05:19:39;6.40;99.90
23669;DHT22;12011;47.422;15.018;2023-04-28T05:22:10;6.60;99.90
23669;DHT22;12011;47.422;15.018;2023-04-28T05:24:39;6.70;99.90
23669;DHT22;12011;47.422;15.018;2023-04-28T05:27:09;6.90;99.90
23669;DHT22;12011;47.422;15.018;2023-04-28T05:29:39;6.90;99.90
23669;DHT22;12011;47.422;15.018;2023-04-28T05:32:10;6.80;99.90
23669;DHT22;12011;47.422;15.018;2023-04-28T05:34:42;6.80;99.90
23669;DHT22;12011;47.422;15.018;2023-04-28T05:37:11;6.80;99.90
23669;DHT22;12011;47.422;15.018;2023-04-28T05:39:43;6.70;99.90
23669;DHT22;12011;47.422;15.018;2023-04-28T05:42:13;6.70;99.90
23669;DHT22;12011;47.422;15.018;2023-04-28T05:44:43;6.70;99.90
23669;DHT22;12011;47.422;15.018;2023-04-28T05:47:12;6.90;99.90
23669;DHT22;12011;47.422;15.018;2023-04-28T05:49:44;7.00;99.90
23669;DHT22;12011;47.422;15.018;2023-04-28T05:52:14;7.10;99.90
23669;DHT22;12011;47.422;15.018;2023-04-28T05:54:43;7.30;99.90
23669;DHT22;12011;47.422;15.018;2023-04-28T05:57:14;7.40;99.90
23669;DHT22;12011;47.422;15.018;2023-04-28T05:59:44;7.50;99.90
23669;DHT22;12011;47.422;15.018;2023-04-28T06:02:14;7.60;99.90
23669;DHT22;12011;47.422;15.018;2023-04-28T06:04:46;7.70;99.90
23669;DHT22;12011;47.422;15.018;2023-04-28T06:07:15;7.70;99.90
23669;DHT22;12011;47.422;15.018;2023-04-28T06:09:45;7.70;99.90
23669;DHT22;12011;47.422;15.018;2023-04-28T06:12:15;7.70;99.90
23669;DHT22;12011;47.422;15.018;2023-04-28T06:14:44;7.80;99.90
23669;DHT22;12011;47.422;15.018;2023-04-28T06:17:14;7.90;99.90
23669;DHT22;12011;47.422;15.018;2023-04-28T06:19:46;8.10;99.90
23669;DHT22;12011;47.422;15.018;2023-04-28T06:22:16;8.20;99.90
23669;DHT22;12011;47.422;15.018;2023-04-28T06:24:46;8.30;99.90
23669;DHT22;12011;47.422;15.018;2023-04-28T06:27:19;8.30;99.90
23669;DHT22;12011;47.422;15.018;2023-04-28T06:29:49;8.50;99.90
23669;DHT22;12011;47.422;15.018;2023-04-28T06:32:18;8.60;99.90
23669;DHT22;12011;47.422;15.018;2023-04-28T06:34:50;8.70;99.90
23669;DHT22;12011;47.422;15.018;2023-04-28T06:37:20;8.70;99.90
23669;DHT22;12011;47.422;15.018;2023-04-28T06:39:49;8.80;99.90
23669;DHT22;12011;47.422;15.018;2023-04-28T06:42:19;8.90;99.90
23669;DHT22;12011;47.422;15.018;2023-04-28T06:44:57;9.10;99.90
23669;DHT22;12011;47.422;15.018;2023-04-28T06:47:29;9.20;99.20
23669;DHT22;12011;47.422;15.018;2023-04-28T06:50:01;9.20;98.50
23669;DHT22;12011;47.422;15.018;2023-04-28T06:52:34;9.10;99.90
23669;DHT22;12011;47.422;15.018;2023-04-28T06:55:06;9.20;99.90
23669;DHT22;12011;47.422;15.018;2023-04-28T06:57:37;9.20;99.90
23669;DHT22;12011;47.422;15.018;2023-04-28T07:00:08;9.20;99.90
23669;DHT22;12011;47.422;15.018;2023-04-28T07:02:39;9.10;99.90
23669;DHT22;12011;47.422;15.018;2023-04-28T07:05:11;9.10;99.90
23669;DHT22;12011;47.422;15.018;2023-04-28T07:07:41;9.10;99.90
23669;DHT22;12011;47.422;15.018;2023-04-28T07:10:10;9.20;99.90
23669;DHT22;12011;47.422;15.018;2023-04-28T07:12:41;9.30;99.90
23669;DHT22;12011;47.422;15.018;2023-04-28T07:15:11;9.40;99.90
23669;DHT22;12011;47.422;15.018;2023-04-28T07:17:41;9.50;99.90
23669;DHT22;12011;47.422;15.018;2023-04-28T07:20:14;9.60;99.90
23669;DHT22;12011;47.422;15.018;2023-04-28T07:22:43;9.70;99.90
23669;DHT22;12011;47.422;15.018;2023-04-28T07:25:13;9.80;99.90
23669;DHT22;12011;47.422;15.018;2023-04-28T07:27:43;9.80;99.90
23669;DHT22;12011;47.422;15.018;2023-04-28T07:30:14;9.80;99.90
23669;DHT22;12011;47.422;15.018;2023-04-28T07:32:43;9.70;99.90
23669;DHT22;12011;47.422;15.018;2023-04-28T07:35:15;9.60;99.90
23669;DHT22;12011;47.422;15.018;2023-04-28T07:37:45;9.40;99.90
23669;DHT22;12011;47.422;15.018;2023-04-28T07:40:15;9.40;99.90
23669;DHT22;12011;47.422;15.018;2023-04-28T07:42:45;9.40;99.70
23669;DHT22;12011;47.422;15.018;2023-04-28T07:45:15;9.30;99.90
23669;DHT22;12011;47.422;15.018;2023-04-28T07:47:44;9.20;99.50
23669;DHT22;12011;47.422;15.018;2023-04-28T07:50:16;9.20;99.90
23669;DHT22;12011;47.422;15.018;2023-04-28T07:52:46;9.10;99.90
23669;DHT22;12011;47.422;15.018;2023-04-28T07:55:15;9.00;99.90
23669;DHT22;12011;47.422;15.018;2023-04-28T07:57:45;9.00;99.90
23669;DHT22;12011;47.422;15.018;2023-04-28T08:00:16;9.10;99.90
23669;DHT22;12011;47.422;15.018;2023-04-28T08:02:46;9.20;99.90
23669;DHT22;12011;47.422;15.018;2023-04-28T08:05:18;9.10;99.90
23669;DHT22;12011;47.422;15.018;2023-04-28T08:07:48;9.10;99.90
23669;DHT22;12011;47.422;15.018;2023-04-28T08:10:17;9.10;99.90
23669;DHT22;12011;47.422;15.018;2023-04-28T08:12:48;9.00;99.90
23669;DHT22;12011;47.422;15.018;2023-04-28T08:15:17;9.00;99.90
23669;DHT22;12011;47.422;15.018;2023-04-28T08:17:47;9.10;99.90
23669;DHT22;12011;47.422;15.018;2023-04-28T08:20:19;9.10;99.90
23669;DHT22;12011;47.422;15.018;2023-04-28T08:22:49;9.10;99.90
23669;DHT22;12011;47.422;15.018;2023-04-28T08:25:18;9.10;99.90
23669;DHT22;12011;47.422;15.018;2023-04-28T08:27:48;9.10;99.90
23669;DHT22;12011;47.422;15.018;2023-04-28T08:30:17;9.10;99.90
23669;DHT22;12011;47.422;15.018;2023-04-28T08:32:47;9.10;99.90
23669;DHT22;12011;47.422;15.018;2023-04-28T08:35:19;9.10;99.90
23669;DHT22;12011;47.422;15.018;2023-04-28T08:37:49;9.10;99.90
23669;DHT22;12011;47.422;15.018;2023-04-28T08:40:20;9.10;99.90
23669;DHT22;12011;47.422;15.018;2023-04-28T08:42:54;9.10;99.90
23669;DHT22;12011;47.422;15.018;2023-04-28T08:45:24;9.20;99.90
23669;DHT22;12011;47.422;15.018;2023-04-28T08:47:55;9.20;99.90
23669;DHT22;12011;47.422;15.018;2023-04-28T08:50:30;9.30;99.90
23669;DHT22;12011;47.422;15.018;2023-04-28T08:53:03;9.30;97.80
23669;DHT22;12011;47.422;15.018;2023-04-28T08:55:35;9.40;97.00
23669;DHT22;12011;47.422;15.018;2023-04-28T08:58:05;9.40;99.90
23669;DHT22;12011;47.422;15.018;2023-04-28T09:00:36;9.50;99.90
23669;DHT22;12011;47.422;15.018;2023-04-28T09:03:06;9.60;99.90
23669;DHT22;12011;47.422;15.018;2023-04-28T09:05:38;9.70;99.90
23669;DHT22;12011;47.422;15.018;2023-04-28T09:08:08;9.70;99.90
23669;DHT22;12011;47.422;15.018;2023-04-28T09:10:38;9.70;99.90
23669;DHT22;12011;47.422;15.018;2023-04-28T09:13:08;9.70;99.90
23669;DHT22;12011;47.422;15.018;2023-04-28T09:15:39;9.70;99.90
23669;DHT22;12011;47.422;15.018;2023-04-28T09:18:14;9.60;99.90
23669;DHT22;12011;47.422;15.018;2023-04-28T09:20:46;9.70;99.90
23669;DHT22;12011;47.422;15.018;2023-04-28T09:23:19;9.70;99.80
23669;DHT22;12011;47.422;15.018;2023-04-28T09:25:57;9.70;99.30
23669;DHT22;12011;47.422;15.018;2023-04-28T09:28:27;9.70;99.90
23669;DHT22;12011;47.422;15.018;2023-04-28T09:30:57;9.80;98.20
23669;DHT22;12011;47.422;15.018;2023-04-28T09:33:27;9.70;99.90
23669;DHT22;12011;47.422;15.018;2023-04-28T09:35:59;9.80;97.30
23669;DHT22;12011;47.422;15.018;2023-04-28T09:38:29;9.80;96.60
23669;DHT22;12011;47.422;15.018;2023-04-28T09:41:00;9.90;97.60
23669;DHT22;12011;47.422;15.018;2023-04-28T09:43:32;9.90;96.70
23669;DHT22;12011;47.422;15.018;2023-04-28T09:46:04;10.10;97.00
23669;DHT22;12011;47.422;15.018;2023-04-28T09:48:35;10.20;98.10
23669;DHT22;12011;47.422;15.018;2023-04-28T09:51:08;10.20;94.60
23669;DHT22;12011;47.422;15.018;2023-04-28T09:53:38;10.30;96.20
23669;DHT22;12011;47.422;15.018;2023-04-28T09:56:07;10.40;96.00
23669;DHT22;12011;47.422;15.018;2023-04-28T09:58:40;10.40;97.00
23669;DHT22;12011;47.422;15.018;2023-04-28T10:01:12;10.60;99.90
23669;DHT22;12011;47.422;15.018;2023-04-28T10:03:42;10.60;95.40
23669;DHT22;12011;47.422;15.018;2023-04-28T10:06:15;10.60;94.20
23669;DHT22;12011;47.422;15.018;2023-04-28T10:08:45;10.30;97.40
23669;DHT22;12011;47.422;15.018;2023-04-28T10:11:16;10.90;93.70
23669;DHT22;12011;47.422;15.018;2023-04-28T10:13:46;11.00;95.00
23669;DHT22;12011;47.422;15.018;2023-04-28T10:16:15;11.10;91.70
23669;DHT22;12011;47.422;15.018;2023-04-28T10:18:45;11.20;93.80
23669;DHT22;12011;47.422;15.018;2023-04-28T10:21:21;11.30;92.80
23669;DHT22;12011;47.422;15.018;2023-04-28T10:24:14;11.40;92.50
23669;DHT22;12011;47.422;15.018;2023-04-28T10:27:03;11.70;90.80
23669;DHT22;12011;47.422;15.018;2023-04-28T10:29:35;11.80;93.20
23669;DHT22;12011;47.422;15.018;2023-04-28T10:32:17;11.80;81.40
23669;DHT22;12011;47.422;15.018;2023-04-28T10:34:48;12.00;81.50
23669;DHT22;12011;47.422;15.018;2023-04-28T10:40:36;12.50;90.00
23669;DHT22;12011;47.422;15.018;2023-04-28T10:43:08;12.90;89.00
23669;DHT22;12011;47.422;15.018;2023-04-28T10:46:03;13.20;75.80
23669;DHT22;12011;47.422;15.018;2023-04-28T10:48:58;13.40;74.60
23669;DHT22;12011;47.422;15.018;2023-04-28T10:51:29;13.40;70.50
23669;DHT22;12011;47.422;15.018;2023-04-28T10:54:12;13.40;70.00
23669;DHT22;12011;47.422;15.018;2023-04-28T10:59:50;14.00;71.50
23669;DHT22;12011;47.422;15.018;2023-04-28T11:02:38;14.30;61.50
23669;DHT22;12011;47.422;15.018;2023-04-28T11:05:16;14.50;83.30
23669;DHT22;12011;47.422;15.018;2023-04-28T11:11:20;14.70;63.20
23669;DHT22;12011;47.422;15.018;2023-04-28T11:13:53;14.70;57.70
23669;DHT22;12011;47.422;15.018;2023-04-28T11:16:26;15.00;70.30
23669;DHT22;12011;47.422;15.018;2023-04-28T11:19:00;15.20;59.30
23669;DHT22;12011;47.422;15.018;2023-04-28T11:21:32;15.30;53.70
23669;DHT22;12011;47.422;15.018;2023-04-28T11:24:10;15.50;59.60
23669;DHT22;12011;47.422;15.018;2023-04-28T11:26:43;15.90;58.70
23669;DHT22;12011;47.422;15.018;2023-04-28T11:29:13;16.10;55.80
23669;DHT22;12011;47.422;15.018;2023-04-28T11:31:49;16.40;54.40
23669;DHT22;12011;47.422;15.018;2023-04-28T11:34:24;16.60;59.00
23669;DHT22;12011;47.422;15.018;2023-04-28T11:36:55;16.60;51.00
23669;DHT22;12011;47.422;15.018;2023-04-28T11:39:29;16.70;56.70
23669;DHT22;12011;47.422;15.018;2023-04-28T11:42:10;16.40;52.30
23669;DHT22;12011;47.422;15.018;2023-04-28T11:44:42;16.50;49.50
23669;DHT22;12011;47.422;15.018;2023-04-28T11:47:31;16.00;49.90
23669;DHT22;12011;47.422;15.018;2023-04-28T11:50:02;16.50;50.30
23669;DHT22;12011;47.422;15.018;2023-04-28T11:52:32;16.70;55.50
23669;DHT22;12011;47.422;15.018;2023-04-28T11:55:01;16.60;51.60
23669;DHT22;12011;47.422;15.018;2023-04-28T11:57:34;16.90;59.60
23669;DHT22;12011;47.422;15.018;2023-04-28T12:00:14;16.80;56.90
23669;DHT22;12011;47.422;15.018;2023-04-28T12:02:47;16.80;60.10
23669;DHT22;12011;47.422;15.018;2023-04-28T12:05:16;16.70;62.00
23669;DHT22;12011;47.422;15.018;2023-04-28T12:07:47;16.50;50.80
23669;DHT22;12011;47.422;15.018;2023-04-28T12:10:16;16.30;53.90
23669;DHT22;12011;47.422;15.018;2023-04-28T12:12:49;16.10;52.30
23669;DHT22;12011;47.422;15.018;2023-04-28T12:15:20;16.00;60.70
23669;DHT22;12011;47.422;15.018;2023-04-28T12:17:50;15.90;70.30
23669;DHT22;12011;47.422;15.018;2023-04-28T12:20:36;15.50;51.10
23669;DHT22;12011;47.422;15.018;2023-04-28T12:23:07;15.50;64.40
23669;DHT22;12011;47.422;15.018;2023-04-28T12:25:43;15.20;57.40
23669;DHT22;12011;47.422;15.018;2023-04-28T12:28:16;15.20;68.60
23669;DHT22;12011;47.422;15.018;2023-04-28T12:30:45;15.10;64.00
23669;DHT22;12011;47.422;15.018;2023-04-28T12:33:22;15.10;71.40
23669;DHT22;12011;47.422;15.018;2023-04-28T12:35:52;15.10;71.00
23669;DHT22;12011;47.422;15.018;2023-04-28T12:38:22;15.00;67.90
23669;DHT22;12011;47.422;15.018;2023-04-28T12:40:53;14.80;60.30
23669;DHT22;12011;47.422;15.018;2023-04-28T12:43:26;14.80;59.20
23669;DHT22;12011;47.422;15.018;2023-04-28T12:45:55;14.60;57.20
23669;DHT22;12011;47.422;15.018;2023-04-28T12:48:26;14.60;62.30
23669;DHT22;12011;47.422;15.018;2023-04-28T12:50:56;14.50;56.60
23669;DHT22;12011;47.422;15.018;2023-04-28T12:53:26;14.60;57.70
23669;DHT22;12011;47.422;15.018;2023-04-28T12:55:56;14.80;79.30
23669;DHT22;12011;47.422;15.018;2023-04-28T12:58:28;15.00;66.40
23669;DHT22;12011;47.422;15.018;2023-04-28T13:00:58;14.80;64.20
23669;DHT22;12011;47.422;15.018;2023-04-28T13:03:27;14.80;63.70
23669;DHT22;12011;47.422;15.018;2023-04-28T13:05:57;14.90;65.70
23669;DHT22;12011;47.422;15.018;2023-04-28T13:08:26;15.00;65.90
23669;DHT22;12011;47.422;15.018;2023-04-28T13:10:59;15.10;75.80
23669;DHT22;12011;47.422;15.018;2023-04-28T13:13:36;15.10;75.50
23669;DHT22;12011;47.422;15.018;2023-04-28T13:16:06;15.10;88.20
23669;DHT22;12011;47.422;15.018;2023-04-28T13:18:35;15.10;77.30
23669;DHT22;12011;47.422;15.018;2023-04-28T13:21:05;15.10;87.90
23669;DHT22;12011;47.422;15.018;2023-04-28T13:23:34;15.10;79.00
23669;DHT22;12011;47.422;15.018;2023-04-28T13:26:04;14.80;88.10
23669;DHT22;12011;47.422;15.018;2023-04-28T13:28:36;14.60;81.60
23669;DHT22;12011;47.422;15.018;2023-04-28T13:31:06;14.60;85.10
23669;DHT22;12011;47.422;15.018;2023-04-28T13:33:35;14.50;79.30
23669;DHT22;12011;47.422;15.018;2023-04-28T13:36:06;14.20;84.40
23669;DHT22;12011;47.422;15.018;2023-04-28T13:38:35;14.20;92.00
23669;DHT22;12011;47.422;15.018;2023-04-28T13:41:05;14.10;90.30
23669;DHT22;12011;47.422;15.018;2023-04-28T13:43:38;14.00;80.50
23669;DHT22;12011;47.422;15.018;2023-04-28T13:46:07;13.90;73.20
23669;DHT22;12011;47.422;15.018;2023-04-28T13:48:38;13.80;73.70
23669;DHT22;12011;47.422;15.018;2023-04-28T13:51:08;13.80;76.60
23669;DHT22;12011;47.422;15.018;2023-04-28T13:53:37;13.70;90.20
23669;DHT22;12011;47.422;15.018;2023-04-28T13:56:07;13.60;90.90
23669;DHT22;12011;47.422;15.018;2023-04-28T13:58:39;13.60;95.90
23669;DHT22;12011;47.422;15.018;2023-04-28T14:01:09;13.50;96.30
23669;DHT22;12011;47.422;15.018;2023-04-28T14:03:39;13.50;99.90
23669;DHT22;12011;47.422;15.018;2023-04-28T14:06:09;13.40;99.90
23669;DHT22;12011;47.422;15.018;2023-04-28T14:08:39;13.30;99.90
23669;DHT22;12011;47.422;15.018;2023-04-28T14:11:08;13.20;99.90
23669;DHT22;12011;47.422;15.018;2023-04-28T14:13:40;13.00;99.90
23669;DHT22;12011;47.422;15.018;2023-04-28T14:16:11;12.90;99.90
23669;DHT22;12011;47.422;15.018;2023-04-28T14:18:41;12.70;99.90
23669;DHT22;12011;47.422;15.018;2023-04-28T14:21:10;12.60;99.90
23669;DHT22;12011;47.422;15.018;2023-04-28T14:23:39;12.40;99.90
23669;DHT22;12011;47.422;15.018;2023-04-28T14:26:09;12.40;99.90
23669;DHT22;12011;47.422;15.018;2023-04-28T14:28:41;12.40;99.90
23669;DHT22;12011;47.422;15.018;2023-04-28T14:31:11;12.30;99.90
23669;DHT22;12011;47.422;15.018;2023-04-28T14:33:40;12.20;99.90
23669;DHT22;12011;47.422;15.018;2023-04-28T14:36:10;12.20;99.90
23669;DHT22;12011;47.422;15.018;2023-04-28T14:38:42;12.10;99.90
23669;DHT22;12011;47.422;15.018;2023-04-28T14:41:12;12.00;99.90
23669;DHT22;12011;47.422;15.018;2023-04-28T14:43:44;11.90;99.90
23669;DHT22;12011;47.422;15.018;2023-04-28T14:46:13;11.90;99.90
23669;DHT22;12011;47.422;15.018;2023-04-28T14:48:44;11.70;99.90
23669;DHT22;12011;47.422;15.018;2023-04-28T14:51:14;11.70;99.90
23669;DHT22;12011;47.422;15.018;2023-04-28T14:53:44;11.70;99.90
23669;DHT22;12011;47.422;15.018;2023-04-28T14:56:13;11.50;99.90
23669;DHT22;12011;47.422;15.018;2023-04-28T14:58:48;11.60;99.90
23669;DHT22;12011;47.422;15.018;2023-04-28T15:01:17;11.60;99.90
23669;DHT22;12011;47.422;15.018;2023-04-28T15:03:47;11.60;99.90
23669;DHT22;12011;47.422;15.018;2023-04-28T15:06:17;11.50;99.90
23669;DHT22;12011;47.422;15.018;2023-04-28T15:08:46;11.60;99.90
23669;DHT22;12011;47.422;15.018;2023-04-28T15:11:16;11.60;99.90
23669;DHT22;12011;47.422;15.018;2023-04-28T15:13:48;11.70;99.90
23669;DHT22;12011;47.422;15.018;2023-04-28T15:16:17;11.80;99.90
23669;DHT22;12011;47.422;15.018;2023-04-28T15:18:47;11.80;99.90
23669;DHT22;12011;47.422;15.018;2023-04-28T15:21:17;11.80;99.90
23669;DHT22;12011;47.422;15.018;2023-04-28T15:23:46;11.80;99.90
23669;DHT22;12011;47.422;15.018;2023-04-28T15:26:16;11.90;99.90
23669;DHT22;12011;47.422;15.018;2023-04-28T15:28:48;11.80;99.90
23669;DHT22;12011;47.422;15.018;2023-04-28T15:31:18;11.80;99.90
23669;DHT22;12011;47.422;15.018;2023-04-28T15:33:48;11.80;99.90
23669;DHT22;12011;47.422;15.018;2023-04-28T15:36:18;11.80;99.90
23669;DHT22;12011;47.422;15.018;2023-04-28T15:38:47;11.90;99.90
23669;DHT22;12011;47.422;15.018;2023-04-28T15:41:18;11.90;99.90
23669;DHT22;12011;47.422;15.018;2023-04-28T15:43:50;12.00;99.90
23669;DHT22;12011;47.422;15.018;2023-04-28T15:46:21;12.20;99.90
23669;DHT22;12011;47.422;15.018;2023-04-28T15:48:50;12.20;99.90
23669;DHT22;12011;47.422;15.018;2023-04-28T15:51:20;12.30;99.90
23669;DHT22;12011;47.422;15.018;2023-04-28T15:53:50;12.30;99.90
23669;DHT22;12011;47.422;15.018;2023-04-28T15:56:21;12.20;99.90
23669;DHT22;12011;47.422;15.018;2023-04-28T15:58:54;12.10;99.90
23669;DHT22;12011;47.422;15.018;2023-04-28T16:01:23;12.00;99.90
23669;DHT22;12011;47.422;15.018;2023-04-28T16:03:53;11.80;99.90
23669;DHT22;12011;47.422;15.018;2023-04-28T16:06:23;11.80;99.90
23669;DHT22;12011;47.422;15.018;2023-04-28T16:08:53;11.80;99.90
23669;DHT22;12011;47.422;15.018;2023-04-28T16:11:23;11.80;99.90
23669;DHT22;12011;47.422;15.018;2023-04-28T16:13:55;12.00;99.90